Terminal Aerodrome Forecast
Issued by NWS Corpus Christi, TX

Home | Current Version | Previous Version | Text Only | Print | Product List | Glossary On
Versions: 1 2 3 4 5 6 7 8 9 10 11 12 13 14 15 16 17 18 19 20 21 22 23 24 25 26
000
FTUS44 KCRP 310500
TAFCRP
TAF
KCRP 310530Z 3106/0106 08010KT P6SM OVC007
     FM310900 09008KT P6SM OVC005
      TEMPO 3110/3114 5SM -DZ BR OVC003
     FM311500 13014KT P6SM BKN014 OVC025
     FM311900 15019G27KT P6SM BKN025 OVC120
     FM312300 14014KT P6SM BKN012 OVC100
     FM010200 13012KT 4SM BR OVC008 PROB30 0102/0106 2SM -SHRA
      OVC005=

USA.gov is the U.S. government's official web portal to all federal, state and local government web resources and services.